Time,TemperatureF,DewpointF,PressureIn,WindDirection,WindDirectionDegrees,WindSpeedMPH,WindSpeedGustMPH,Humidity,HourlyPrecipIn,Conditions,Clouds,dailyrainin,SoftwareType,DateUTC
2013-07-31 00:00:00,90.0,0.0,29.94,South,172,7.0,12.0,23,-99.99,,,-99.99,,2013-07-31 07:00:00,
2013-07-31 00:08:00,90.0,0.0,29.94,South,172,7.0,12.0,23,-99.99,,,-99.99,,2013-07-31 07:08:00,
2013-07-31 00:16:00,90.0,0.0,29.94,South,172,7.0,12.0,23,-99.99,,,-99.99,,2013-07-31 07:16:00,
2013-07-31 00:24:00,90.0,0.0,29.94,South,172,7.0,12.0,23,-99.99,,,-99.99,,2013-07-31 07:24:00,
2013-07-31 00:32:00,90.0,0.0,29.94,South,172,7.0,12.0,23,-99.99,,,-99.99,,2013-07-31 07:32:00,
2013-07-31 00:40:00,90.0,0.0,29.94,South,172,7.0,12.0,23,-99.99,,,-99.99,,2013-07-31 07:40:00,
2013-07-31 00:48:00,90.0,0.0,29.94,South,172,7.0,12.0,23,-99.99,,,-99.99,,2013-07-31 07:48:00,
2013-07-31 00:56:00,90.0,0.0,29.94,South,172,7.0,12.0,23,-99.99,,,-99.99,,2013-07-31 07:56:00,
2013-07-31 01:04:00,90.0,0.0,29.94,South,172,7.0,12.0,23,-99.99,,,-99.99,,2013-07-31 08:04:00,
2013-07-31 01:12:00,90.0,0.0,29.94,South,172,7.0,12.0,23,-99.99,,,-99.99,,2013-07-31 08:12:00,
2013-07-31 01:20:00,90.0,0.0,29.94,South,172,7.0,12.0,23,-99.99,,,-99.99,,2013-07-31 08:20:00,
2013-07-31 01:28:00,90.0,0.0,29.94,South,172,7.0,12.0,23,-99.99,,,-99.99,,2013-07-31 08:28:00,
2013-07-31 01:36:00,90.0,0.0,29.94,South,172,7.0,12.0,23,-99.99,,,-99.99,,2013-07-31 08:36:00,
2013-07-31 01:44:00,90.0,0.0,29.94,South,172,7.0,12.0,23,-99.99,,,-99.99,,2013-07-31 08:44:00,
2013-07-31 01:52:00,90.0,0.0,29.94,South,172,7.0,12.0,23,-99.99,,,-99.99,,2013-07-31 08:52:00,
2013-07-31 02:00:00,90.0,0.0,29.94,South,172,7.0,12.0,23,-99.99,,,-99.99,,2013-07-31 09:00:00,
2013-07-31 02:08:00,90.0,0.0,29.94,South,172,7.0,12.0,23,-99.99,,,-99.99,,2013-07-31 09:08:00,
2013-07-31 02:16:00,90.0,0.0,29.94,South,172,7.0,12.0,23,-99.99,,,-99.99,,2013-07-31 09:16:00,
2013-07-31 02:24:00,90.0,0.0,29.94,South,172,7.0,12.0,23,-99.99,,,-99.99,,2013-07-31 09:24:00,
2013-07-31 02:32:00,90.0,0.0,29.94,South,172,7.0,12.0,23,-99.99,,,-99.99,,2013-07-31 09:32:00,
2013-07-31 02:40:00,90.0,0.0,29.94,South,172,7.0,12.0,23,-99.99,,,-99.99,,2013-07-31 09:40:00,
2013-07-31 02:48:00,90.0,0.0,29.94,South,172,7.0,12.0,23,-99.99,,,-99.99,,2013-07-31 09:48:00,
2013-07-31 02:56:00,90.0,0.0,29.94,South,172,7.0,12.0,23,-99.99,,,-99.99,,2013-07-31 09:56:00,
2013-07-31 03:04:00,90.0,0.0,29.94,South,172,7.0,12.0,23,-99.99,,,-99.99,,2013-07-31 10:04:00,
2013-07-31 03:12:00,90.0,0.0,29.94,South,172,7.0,12.0,23,-99.99,,,-99.99,,2013-07-31 10:12:00,
2013-07-31 03:20:00,90.0,0.0,29.94,South,172,7.0,12.0,23,-99.99,,,-99.99,,2013-07-31 10:20:00,
2013-07-31 03:28:00,90.0,0.0,29.94,South,172,7.0,12.0,23,-99.99,,,-99.99,,2013-07-31 10:28:00,
2013-07-31 03:36:00,90.0,0.0,29.94,South,172,7.0,12.0,23,-99.99,,,-99.99,,2013-07-31 10:36:00,
2013-07-31 03:44:00,90.0,0.0,29.94,South,172,7.0,12.0,23,-99.99,,,-99.99,,2013-07-31 10:44:00,
2013-07-31 03:52:00,90.0,0.0,29.94,South,172,7.0,12.0,23,-99.99,,,-99.99,,2013-07-31 10:52:00,
2013-07-31 04:00:00,90.0,0.0,29.94,South,172,7.0,12.0,23,-99.99,,,-99.99,,2013-07-31 11:00:00,
2013-07-31 04:08:00,90.0,0.0,29.94,South,172,7.0,12.0,23,-99.99,,,-99.99,,2013-07-31 11:08:00,
2013-07-31 04:16:00,90.0,0.0,29.94,South,172,7.0,12.0,23,-99.99,,,-99.99,,2013-07-31 11:16:00,
2013-07-31 04:24:00,90.0,0.0,29.94,South,172,7.0,12.0,23,-99.99,,,-99.99,,2013-07-31 11:24:00,
2013-07-31 04:32:00,90.0,0.0,29.94,South,172,7.0,12.0,23,-99.99,,,-99.99,,2013-07-31 11:32:00,
2013-07-31 04:40:00,90.0,0.0,29.94,South,172,7.0,12.0,23,-99.99,,,-99.99,,2013-07-31 11:40:00,
2013-07-31 04:48:00,90.0,0.0,29.94,South,172,7.0,12.0,23,-99.99,,,-99.99,,2013-07-31 11:48:00,
2013-07-31 04:56:00,90.0,0.0,29.94,South,172,7.0,12.0,23,-99.99,,,-99.99,,2013-07-31 11:56:00,
2013-07-31 05:04:00,90.0,0.0,29.94,South,172,7.0,12.0,23,-99.99,,,-99.99,,2013-07-31 12:04:00,
2013-07-31 05:12:00,90.0,0.0,29.94,South,172,7.0,12.0,23,-99.99,,,-99.99,,2013-07-31 12:12:00,
2013-07-31 05:20:00,90.0,0.0,29.94,South,172,7.0,12.0,23,-99.99,,,-99.99,,2013-07-31 12:20:00,
2013-07-31 05:28:00,90.0,0.0,29.94,South,172,7.0,12.0,23,-99.99,,,-99.99,,2013-07-31 12:28:00,
2013-07-31 05:37:00,90.0,0.0,29.94,South,172,7.0,12.0,23,-99.99,,,-99.99,,2013-07-31 12:37:00,
2013-07-31 05:44:00,90.0,0.0,29.94,South,172,7.0,12.0,23,-99.99,,,-99.99,,2013-07-31 12:44:00,
2013-07-31 05:52:00,90.0,0.0,29.94,South,172,7.0,12.0,23,-99.99,,,-99.99,,2013-07-31 12:52:00,
2013-07-31 06:00:00,90.0,0.0,29.94,South,172,7.0,12.0,23,-99.99,,,-99.99,,2013-07-31 13:00:00,
2013-07-31 06:08:00,90.0,0.0,29.94,South,172,7.0,12.0,23,-99.99,,,-99.99,,2013-07-31 13:08:00,
2013-07-31 06:16:00,90.0,0.0,29.94,South,172,7.0,12.0,23,-99.99,,,-99.99,,2013-07-31 13:16:00,
2013-07-31 06:24:00,90.0,0.0,29.94,South,172,7.0,12.0,23,-99.99,,,-99.99,,2013-07-31 13:24:00,
2013-07-31 06:32:00,90.0,0.0,29.94,South,172,7.0,12.0,23,-99.99,,,-99.99,,2013-07-31 13:32:00,
2013-07-31 06:40:00,90.0,0.0,29.94,South,172,7.0,12.0,23,-99.99,,,-99.99,,2013-07-31 13:40:00,
2013-07-31 06:48:00,90.0,0.0,29.94,South,172,7.0,12.0,23,-99.99,,,-99.99,,2013-07-31 13:48:00,
2013-07-31 06:56:00,90.0,0.0,29.94,South,172,7.0,12.0,23,-99.99,,,-99.99,,2013-07-31 13:56:00,
2013-07-31 07:04:00,90.0,0.0,29.94,South,172,7.0,12.0,23,-99.99,,,-99.99,,2013-07-31 14:04:00,
2013-07-31 07:16:00,90.0,0.0,29.94,South,172,7.0,12.0,23,-99.99,,,-99.99,,2013-07-31 14:16:00,
2013-07-31 07:24:00,90.0,0.0,29.94,South,172,7.0,12.0,23,-99.99,,,-99.99,,2013-07-31 14:24:00,
2013-07-31 07:32:00,90.0,0.0,29.94,South,172,7.0,12.0,23,-99.99,,,-99.99,,2013-07-31 14:32:00,
2013-07-31 07:40:00,90.0,0.0,29.94,South,172,7.0,12.0,23,-99.99,,,-99.99,,2013-07-31 14:40:00,
2013-07-31 07:48:00,90.0,0.0,29.94,South,172,7.0,12.0,23,-99.99,,,-99.99,,2013-07-31 14:48:00,
2013-07-31 07:56:00,90.0,0.0,29.94,South,172,7.0,12.0,23,-99.99,,,-99.99,,2013-07-31 14:56:00,
2013-07-31 08:04:00,90.0,0.0,29.94,South,172,7.0,12.0,23,-99.99,,,-99.99,,2013-07-31 15:04:00,
2013-07-31 08:12:00,90.0,0.0,29.94,South,172,7.0,12.0,23,-99.99,,,-99.99,,2013-07-31 15:12:00,
2013-07-31 08:20:00,90.0,0.0,29.94,South,172,7.0,12.0,23,-99.99,,,-99.99,,2013-07-31 15:20:00,
2013-07-31 08:28:00,90.0,0.0,29.94,South,172,7.0,12.0,23,-99.99,,,-99.99,,2013-07-31 15:28:00,
2013-07-31 08:36:00,90.0,0.0,29.94,South,172,7.0,12.0,23,-99.99,,,-99.99,,2013-07-31 15:36:00,
2013-07-31 08:44:00,90.0,0.0,29.94,South,172,7.0,12.0,23,-99.99,,,-99.99,,2013-07-31 15:44:00,
2013-07-31 08:52:00,90.0,0.0,29.94,South,172,7.0,12.0,23,-99.99,,,-99.99,,2013-07-31 15:52:00,
2013-07-31 09:00:00,84.0,0.0,30.06,SE,142,1.0,7.0,25,-99.99,,,-99.99,,2013-07-31 16:00:00,
2013-07-31 09:08:00,84.0,0.0,30.06,SE,130,3.0,7.0,27,-99.99,,,-99.99,,2013-07-31 16:08:00,
2013-07-31 09:16:00,86.0,0.0,30.06,SE,126,1.0,5.0,26,-99.99,,,-99.99,,2013-07-31 16:16:00,
2013-07-31 09:24:00,88.0,0.0,30.06,WSW,238,0.0,6.0,23,-99.99,,,-99.99,,2013-07-31 16:24:00,
2013-07-31 09:32:00,87.0,0.0,30.06,SSE,165,2.0,5.0,23,-99.99,,,-99.99,,2013-07-31 16:32:00,
2013-07-31 09:40:00,87.0,0.0,30.06,ESE,116,1.0,7.0,23,-99.99,,,-99.99,,2013-07-31 16:40:00,
2013-07-31 09:48:00,88.0,0.0,30.06,SW,222,0.0,7.0,23,-99.99,,,-99.99,,2013-07-31 16:48:00,
2013-07-31 09:56:00,89.0,0.0,30.05,SE,136,3.0,5.0,26,-99.99,,,-99.99,,2013-07-31 16:56:00,
2013-07-31 10:04:00,90.0,0.0,30.05,North,349,1.0,6.0,22,-99.99,,,-99.99,,2013-07-31 17:04:00,
2013-07-31 10:12:00,91.0,0.0,30.05,SE,141,2.0,5.0,22,-99.99,,,-99.99,,2013-07-31 17:12:00,
2013-07-31 10:20:00,90.0,0.0,30.05,SSE,165,3.0,7.0,22,-99.99,,,-99.99,,2013-07-31 17:20:00,
2013-07-31 10:28:00,91.0,0.0,30.05,SSW,208,2.0,7.0,21,-99.99,,,-99.99,,2013-07-31 17:28:00,
2013-07-31 10:36:00,91.0,0.0,30.05,SE,140,2.0,8.0,22,-99.99,,,-99.99,,2013-07-31 17:36:00,
2013-07-31 10:44:00,91.0,0.0,30.05,South,172,2.0,8.0,19,-99.99,,,-99.99,,2013-07-31 17:44:00,
2013-07-31 10:52:00,93.0,0.0,30.05,South,178,5.0,7.0,21,-99.99,,,-99.99,,2013-07-31 17:52:00,
2013-07-31 11:04:00,95.0,0.0,30.04,SSW,201,0.0,6.0,20,-99.99,,,-99.99,,2013-07-31 18:04:00,
2013-07-31 11:12:00,94.0,0.0,30.04,SW,230,3.0,7.0,18,-99.99,,,-99.99,,2013-07-31 18:12:00,
2013-07-31 11:20:00,94.0,0.0,30.04,WNW,290,2.0,7.0,18,-99.99,,,-99.99,,2013-07-31 18:20:00,
2013-07-31 11:28:00,94.0,0.0,30.04,SE,145,2.0,7.0,18,-99.99,,,-99.99,,2013-07-31 18:28:00,
2013-07-31 11:36:00,93.0,0.0,30.04,ENE,63,6.0,8.0,18,-99.99,,,-99.99,,2013-07-31 18:36:00,
2013-07-31 11:44:00,94.0,0.0,30.03,SSE,157,2.0,10.0,18,-99.99,,,-99.99,,2013-07-31 18:44:00,
2013-07-31 11:52:00,96.0,0.0,30.03,South,184,12.0,12.0,20,-99.99,,,-99.99,,2013-07-31 18:52:00,
2013-07-31 12:00:00,96.0,0.0,30.02,SSE,166,2.0,13.0,18,-99.99,,,-99.99,,2013-07-31 19:00:00,
2013-07-31 12:08:00,96.0,0.0,30.02,South,177,9.0,9.0,17,-99.99,,,-99.99,,2013-07-31 19:08:00,
2013-07-31 12:16:00,0.0,0.0,-0.01,North,0,0.0,0.0,0,-99.99,,,-99.99,,2013-07-31 19:16:00,
2013-07-31 12:24:00,95.0,0.0,30.01,SW,234,2.0,13.0,20,-99.99,,,-99.99,,2013-07-31 19:24:00,
2013-07-31 12:32:00,98.0,0.0,30.01,SE,132,13.0,14.0,17,-99.99,,,-99.99,,2013-07-31 19:32:00,
2013-07-31 12:40:00,97.0,0.0,30.00,West,264,5.0,17.0,19,-99.99,,,-99.99,,2013-07-31 19:40:00,
2013-07-31 12:48:00,98.0,0.0,30.00,SE,136,2.0,14.0,16,-99.99,,,-99.99,,2013-07-31 19:48:00,
2013-07-31 12:56:00,98.0,0.0,30.00,SSE,165,9.0,18.0,18,-99.99,,,-99.99,,2013-07-31 19:56:00,
2013-07-31 13:04:00,99.0,0.0,29.99,SE,138,9.0,18.0,20,-99.99,,,-99.99,,2013-07-31 20:04:00,
2013-07-31 13:16:00,98.0,0.0,29.99,SSE,148,9.0,15.0,18,-99.99,,,-99.99,,2013-07-31 20:16:00,
2013-07-31 13:28:00,100.0,0.0,29.98,SSE,159,16.0,16.0,17,-99.99,,,-99.99,,2013-07-31 20:28:00,
2013-07-31 13:37:00,100.0,0.0,29.98,SSE,157,6.0,20.0,20,-99.99,,,-99.99,,2013-07-31 20:37:00,
2013-07-31 13:44:00,99.0,0.0,29.97,South,174,13.0,20.0,16,-99.99,,,-99.99,,2013-07-31 20:44:00,
2013-07-31 13:52:00,99.0,0.0,29.97,SSW,200,1.0,16.0,19,-99.99,,,-99.99,,2013-07-31 20:52:00,
2013-07-31 14:00:00,100.0,0.0,29.96,SW,227,22.0,22.0,12,-99.99,,,-99.99,,2013-07-31 21:00:00,
2013-07-31 14:08:00,99.0,0.0,29.96,SW,233,14.0,23.0,14,-99.99,,,-99.99,,2013-07-31 21:08:00,
2013-07-31 14:16:00,100.0,0.0,29.96,SSW,201,10.0,26.0,13,-99.99,,,-99.99,,2013-07-31 21:16:00,
2013-07-31 14:24:00,100.0,0.0,29.96,SSW,208,13.0,26.0,13,-99.99,,,-99.99,,2013-07-31 21:24:00,
2013-07-31 14:32:00,100.0,0.0,29.96,SSW,202,20.0,22.0,13,-99.99,,,-99.99,,2013-07-31 21:32:00,
2013-07-31 14:40:00,98.0,0.0,29.96,SW,225,10.0,22.0,15,-99.99,,,-99.99,,2013-07-31 21:40:00,
2013-07-31 14:48:00,100.0,0.0,29.96,SSW,213,5.0,20.0,14,-99.99,,,-99.99,,2013-07-31 21:48:00,
2013-07-31 14:56:00,100.0,0.0,29.95,SSW,201,16.0,20.0,11,-99.99,,,-99.99,,2013-07-31 21:56:00,
2013-07-31 15:04:00,99.0,0.0,29.95,South,190,8.0,21.0,12,-99.99,,,-99.99,,2013-07-31 22:04:00,
2013-07-31 15:12:00,100.0,0.0,29.95,South,188,13.0,18.0,10,-99.99,,,-99.99,,2013-07-31 22:12:00,
2013-07-31 15:20:00,99.0,0.0,29.94,SSE,166,3.0,22.0,9,-99.99,,,-99.99,,2013-07-31 22:20:00,
2013-07-31 15:28:00,100.0,0.0,29.94,SW,232,12.0,21.0,11,-99.99,,,-99.99,,2013-07-31 22:28:00,
2013-07-31 15:36:00,100.0,0.0,29.94,SSW,209,13.0,22.0,14,-99.99,,,-99.99,,2013-07-31 22:36:00,
2013-07-31 15:44:00,100.0,0.0,29.93,South,177,20.0,24.0,11,-99.99,,,-99.99,,2013-07-31 22:44:00,
2013-07-31 15:52:00,100.0,0.0,29.92,SSE,162,9.0,22.0,13,-99.99,,,-99.99,,2013-07-31 22:52:00,
2013-07-31 16:00:00,100.0,0.0,29.92,SW,229,9.0,21.0,13,-99.99,,,-99.99,,2013-07-31 23:00:00,
2013-07-31 16:08:00,100.0,0.0,29.92,SSW,192,12.0,25.0,11,-99.99,,,-99.99,,2013-07-31 23:08:00,
2013-07-31 16:16:00,100.0,0.0,29.91,SW,222,5.0,25.0,12,-99.99,,,-99.99,,2013-07-31 23:16:00,
2013-07-31 16:24:00,100.0,0.0,29.91,SSW,193,10.0,23.0,11,-99.99,,,-99.99,,2013-07-31 23:24:00,
2013-07-31 16:32:00,100.0,0.0,29.91,SW,215,13.0,17.0,11,-99.99,,,-99.99,,2013-07-31 23:32:00,
2013-07-31 16:40:00,100.0,0.0,29.90,WSW,246,8.0,20.0,12,-99.99,,,-99.99,,2013-07-31 23:40:00,
2013-07-31 16:48:00,100.0,0.0,29.90,WSW,240,13.0,22.0,10,-99.99,,,-99.99,,2013-07-31 23:48:00,
2013-07-31 16:56:00,100.0,0.0,29.90,SW,233,8.0,20.0,10,-99.99,,,-99.99,,2013-07-31 23:56:00,
2013-07-31 17:04:00,100.0,0.0,29.90,SW,220,9.0,21.0,10,-99.99,,,-99.99,,2013-08-01 00:04:00,
2013-07-31 17:12:00,100.0,0.0,29.90,WSW,249,10.0,18.0,12,-99.99,,,-99.99,,2013-08-01 00:12:00,
2013-07-31 17:20:00,100.0,0.0,29.89,SW,218,15.0,20.0,11,-99.99,,,-99.99,,2013-08-01 00:20:00,
2013-07-31 17:28:00,100.0,0.0,29.89,SW,228,9.0,18.0,11,-99.99,,,-99.99,,2013-08-01 00:28:00,
2013-07-31 17:36:00,100.0,0.0,29.89,SSW,206,15.0,21.0,9,-99.99,,,-99.99,,2013-08-01 00:36:00,
2013-07-31 17:44:00,100.0,0.0,29.89,South,191,13.0,24.0,9,-99.99,,,-99.99,,2013-08-01 00:44:00,
2013-07-31 17:52:00,100.0,0.0,29.88,SW,234,13.0,18.0,12,-99.99,,,-99.99,,2013-08-01 00:52:00,
2013-07-31 18:00:00,100.0,0.0,29.88,SW,236,9.0,21.0,11,-99.99,,,-99.99,,2013-08-01 01:00:00,
2013-07-31 18:08:00,99.0,0.0,29.88,SW,214,9.0,21.0,8,-99.99,,,-99.99,,2013-08-01 01:08:00,
2013-07-31 18:16:00,99.0,0.0,29.88,SW,215,13.0,18.0,10,-99.99,,,-99.99,,2013-08-01 01:16:00,
2013-07-31 18:24:00,99.0,0.0,29.87,SW,224,15.0,18.0,8,-99.99,,,-99.99,,2013-08-01 01:24:00,
2013-07-31 18:32:00,99.0,0.0,29.88,West,259,14.0,18.0,10,-99.99,,,-99.99,,2013-08-01 01:32:00,
2013-07-31 18:40:00,99.0,0.0,29.88,SW,219,12.0,18.0,8,-99.99,,,-99.99,,2013-08-01 01:40:00,
2013-07-31 18:48:00,98.0,0.0,29.88,SW,221,10.0,18.0,10,-99.99,,,-99.99,,2013-08-01 01:48:00,
2013-07-31 18:56:00,98.0,0.0,29.88,SSW,196,7.0,14.0,12,-99.99,,,-99.99,,2013-08-01 01:56:00,
2013-07-31 19:04:00,98.0,0.0,29.88,SSW,198,9.0,18.0,11,-99.99,,,-99.99,,2013-08-01 02:04:00,
2013-07-31 19:12:00,98.0,0.0,29.87,SSW,196,8.0,16.0,9,-99.99,,,-99.99,,2013-08-01 02:12:00,
2013-07-31 19:20:00,97.0,0.0,29.88,SSW,198,12.0,16.0,9,-99.99,,,-99.99,,2013-08-01 02:20:00,
2013-07-31 19:28:00,96.0,0.0,29.88,SSW,199,9.0,16.0,12,-99.99,,,-99.99,,2013-08-01 02:28:00,
2013-07-31 19:36:00,96.0,0.0,29.88,SSW,197,9.0,12.0,13,-99.99,,,-99.99,,2013-08-01 02:36:00,
2013-07-31 19:44:00,95.0,0.0,29.88,SSW,207,8.0,15.0,12,-99.99,,,-99.99,,2013-08-01 02:44:00,
2013-07-31 19:52:00,94.0,0.0,29.88,SW,228,9.0,13.0,15,-99.99,,,-99.99,,2013-08-01 02:52:00,
2013-07-31 20:00:00,94.0,0.0,29.88,West,261,7.0,13.0,14,-99.99,,,-99.99,,2013-08-01 03:00:00,
2013-07-31 20:08:00,93.0,0.0,29.88,SSW,208,9.0,12.0,15,-99.99,,,-99.99,,2013-08-01 03:08:00,
2013-07-31 20:16:00,92.0,0.0,29.88,SSW,198,9.0,14.0,16,-99.99,,,-99.99,,2013-08-01 03:16:00,
2013-07-31 20:24:00,91.0,0.0,29.89,SSW,211,12.0,14.0,14,-99.99,,,-99.99,,2013-08-01 03:24:00,
2013-07-31 20:32:00,90.0,0.0,29.89,SW,235,10.0,14.0,15,-99.99,,,-99.99,,2013-08-01 03:32:00,
2013-07-31 20:40:00,88.0,0.0,29.89,West,275,7.0,12.0,14,-99.99,,,-99.99,,2013-08-01 03:40:00,
2013-07-31 20:48:00,88.0,0.0,29.90,WSW,256,7.0,10.0,13,-99.99,,,-99.99,,2013-08-01 03:48:00,
2013-07-31 20:56:00,88.0,0.0,29.90,SW,226,13.0,14.0,15,-99.99,,,-99.99,,2013-08-01 03:56:00,
2013-07-31 21:04:00,89.0,0.0,29.90,SW,219,7.0,14.0,17,-99.99,,,-99.99,,2013-08-01 04:04:00,
2013-07-31 21:12:00,87.0,0.0,29.91,SSW,202,6.0,10.0,19,-99.99,,,-99.99,,2013-08-01 04:12:00,
2013-07-31 21:16:00,87.0,0.0,29.91,SSW,200,5.0,9.0,20,-99.99,,,-99.99,,2013-08-01 04:16:00,
2013-07-31 21:20:00,86.0,0.0,29.91,West,261,2.0,9.0,18,-99.99,,,-99.99,,2013-08-01 04:20:00,
2013-07-31 21:24:00,86.0,0.0,29.91,WSW,240,8.0,8.0,18,-99.99,,,-99.99,,2013-08-01 04:24:00,
2013-07-31 21:32:00,85.0,0.0,29.91,SW,216,7.0,9.0,22,-99.99,,,-99.99,,2013-08-01 04:32:00,
2013-07-31 21:40:00,84.0,0.0,29.91,SSW,198,7.0,8.0,22,-99.99,,,-99.99,,2013-08-01 04:40:00,
2013-07-31 21:48:00,83.0,0.0,29.92,SSW,202,8.0,10.0,22,-99.99,,,-99.99,,2013-08-01 04:48:00,
2013-07-31 21:56:00,83.0,0.0,29.92,SSW,197,8.0,10.0,24,-99.99,,,-99.99,,2013-08-01 04:56:00,
2013-07-31 22:04:00,82.0,0.0,29.92,SSW,209,10.0,12.0,22,-99.99,,,-99.99,,2013-08-01 05:04:00,
2013-07-31 22:12:00,82.0,0.0,29.92,SSW,213,10.0,12.0,20,-99.99,,,-99.99,,2013-08-01 05:12:00,
2013-07-31 22:20:00,83.0,0.0,29.92,SSW,200,12.0,14.0,21,-99.99,,,-99.99,,2013-08-01 05:20:00,
2013-07-31 22:28:00,83.0,0.0,29.92,SSW,212,8.0,14.0,21,-99.99,,,-99.99,,2013-08-01 05:28:00,
2013-07-31 22:36:00,82.0,0.0,29.92,SW,214,9.0,13.0,21,-99.99,,,-99.99,,2013-08-01 05:36:00,
2013-07-31 22:44:00,82.0,0.0,29.92,SSW,213,8.0,10.0,22,-99.99,,,-99.99,,2013-08-01 05:44:00,
2013-07-31 22:52:00,81.0,0.0,29.92,SSW,209,7.0,10.0,21,-99.99,,,-99.99,,2013-08-01 05:52:00,
2013-07-31 23:00:00,81.0,0.0,29.92,SW,235,9.0,12.0,23,-99.99,,,-99.99,,2013-08-01 06:00:00,
2013-07-31 23:08:00,81.0,0.0,29.92,SSW,208,7.0,12.0,21,-99.99,,,-99.99,,2013-08-01 06:08:00,
2013-07-31 23:16:00,80.0,0.0,29.92,SSW,193,8.0,12.0,22,-99.99,,,-99.99,,2013-08-01 06:16:00,
2013-07-31 23:24:00,79.0,0.0,29.92,East,84,3.0,9.0,23,-99.99,,,-99.99,,2013-08-01 06:24:00,
2013-07-31 23:32:00,76.0,0.0,29.93,ENE,71,5.0,6.0,26,-99.99,,,-99.99,,2013-08-01 06:32:00,
2013-07-31 23:40:00,80.0,0.0,29.93,South,185,6.0,9.0,21,-99.99,,,-99.99,,2013-08-01 06:40:00,
2013-07-31 23:48:00,81.0,0.0,29.92,South,178,5.0,8.0,23,-99.99,,,-99.99,,2013-08-01 06:48:00,
2013-07-31 23:56:00,80.0,0.0,29.92,SSE,160,5.0,7.0,24,-99.99,,,-99.99,,2013-08-01 06:56:00,